MDT,Max TemperatureF,Mean TemperatureF,Min TemperatureF,Max Dew PointF,MeanDew PointF,Min DewpointF,Max Humidity, Mean Humidity, Min Humidity, Max Sea Level PressureIn, Mean Sea Level PressureIn, Min Sea Level PressureIn, Max VisibilityMiles, Mean VisibilityMiles, Min VisibilityMiles, Max Wind SpeedMPH, Mean Wind SpeedMPH, Max Gust SpeedMPH,PrecipitationIn, CloudCover, Events, WindDirDegrees
2012-6-1,67,52,36,31,29,26,75,50,24,30.30,29.90,29.78,10,10,10,24,9,31,0.00,1,,339
2012-6-2,65,49,32,41,32,26,75,54,32,30.28,29.87,29.77,10,10,10,31,5,43,0.07,2,Rain,24
2012-6-3,72,53,34,35,27,20,89,52,15,30.35,29.89,29.80,10,10,10,25,7,32,0.00,2,,330
2012-6-4,71,52,32,41,28,18,96,55,14,30.01,29.92,29.85,10,10,10,22,6,36,0.06,2,Rain,124
2012-6-5,63,49,35,42,36,28,100,64,27,30.29,29.89,29.66,10,10,4,25,7,32,T,2,Rain,160
2012-6-6,70,51,31,36,24,9,89,50,10,30.22,29.85,29.67,10,8,1,26,7,35,0.00,1,,145
2012-6-7,70,50,30,36,18,8,65,37,9,30.25,29.80,29.72,10,10,6,21,7,28,0.00,0,,213
2012-6-8,73,51,29,25,15,8,54,32,9,30.32,29.80,29.61,10,10,8,21,5,35,0.00,0,,242
2012-6-9,72,56,39,15,11,4,31,20,8,30.08,29.54,29.42,10,10,2,24,11,33,0.00,0,,210
2012-6-10,60,45,30,22,8,-10,48,27,6,29.96,29.67,29.41,10,10,10,23,11,32,0.00,1,,314
2012-6-11,65,44,22,17,0,-11,40,23,5,30.36,30.02,29.95,10,10,10,22,6,31,0.00,0,,339
2012-6-12,67,48,29,23,12,5,69,40,10,30.37,29.96,29.85,10,10,10,24,7,35,0.00,0,,338
2012-6-13,73,52,31,13,8,6,33,21,8,29.88,29.77,29.67,10,10,10,18,6,24,0.00,0,,359
2012-6-14,71,53,34,20,8,-7,38,22,5,29.76,29.72,29.66,10,10,10,23,8,30,0.00,1,,156
2012-6-15,72,56,39,32,19,5,53,31,8,29.82,29.77,29.71,10,10,10,33,6,39,0.00,2,,63
2012-6-16,71,53,35,35,23,16,60,37,14,30.42,29.93,29.79,10,10,10,25,7,37,T,1,,312
2012-6-17,72,53,33,33,23,15,82,47,12,30.34,29.85,29.69,10,10,10,28,10,36,0.00,0,,328
2012-6-18,77,60,43,19,14,8,31,20,9,29.67,29.60,29.50,10,10,10,21,8,31,0.00,0,,336
2012-6-19,77,57,37,19,13,10,34,21,8,30.13,29.61,29.52,10,10,2,20,8,32,0.00,0,,347
2012-6-20,70,57,43,36,18,10,56,34,11,29.94,29.72,29.55,10,10,10,21,9,30,0.00,0,,344
2012-6-21,78,58,37,36,25,8,85,46,7,30.02,29.92,29.83,10,10,10,22,6,30,0.00,0,,331
2012-6-22,78,57,36,35,20,8,70,39,7,30.31,29.79,29.65,10,10,10,29,8,38,0.00,0,,239
2012-6-23,79,61,43,26,18,11,28,18,8,29.81,29.71,29.62,10,10,10,20,6,29,0.00,1,,175
2012-6-24,79,61,42,33,25,14,46,28,10,30.51,29.96,29.83,10,10,9,25,7,36,0.00,1,,59
2012-6-25,79,60,41,34,23,12,62,35,8,30.01,29.87,29.74,10,10,10,18,6,24,0.00,0,,134
2012-6-26,75,59,43,46,34,25,61,40,19,30.36,29.83,29.74,10,10,2,25,4,33,0.05,2,Rain,294
2012-6-27,69,57,45,42,38,36,71,51,30,30.02,29.89,29.79,10,10,10,25,6,31,0.01,3,Rain,83
2012-6-28,72,55,38,45,39,34,83,54,25,30.57,30.14,29.98,10,10,9,21,6,29,0.01,4,Rain,60
2012-6-29,103,83,62,40,32,26,48,29,10,30.50,30.01,29.89,10,10,10,32,8,48,0.00,2,,115
2012-6-30,75,55,34,31,26,21,75,45,15,30.43,29.92,29.83,10,10,10,23,5,33,T,2,,175